createdAt,value
2022-10-23T00:00:20.374Z,99.99
2022-10-23T00:01:20.173Z,99.99
2022-10-23T00:02:20.189Z,99.99
2022-10-23T00:03:20.080Z,99.99
2022-10-23T00:04:20.685Z,99.99
2022-10-23T00:05:20.065Z,99.99
2022-10-23T00:06:19.994Z,99.99
2022-10-23T00:07:20.105Z,99.99
2022-10-23T00:08:20.035Z,99.99
2022-10-23T00:09:19.973Z,99.99
2022-10-23T00:10:19.941Z,99.99
2022-10-23T00:11:20.004Z,99.99
2022-10-23T00:12:19.953Z,99.99
2022-10-23T00:13:19.925Z,99.99
2022-10-23T00:14:19.992Z,99.99
2022-10-23T00:15:19.873Z,99.99
2022-10-23T00:16:19.923Z,99.99
2022-10-23T00:17:19.940Z,99.99
2022-10-23T00:18:20.048Z,99.99
2022-10-23T00:19:19.877Z,99.99
2022-10-23T00:20:19.814Z,99.99
2022-10-23T00:21:19.812Z,99.99
2022-10-23T00:22:20.908Z,99.99
2022-10-23T00:23:19.975Z,99.99
2022-10-23T00:24:20.031Z,99.99
2022-10-23T00:25:19.869Z,99.99
2022-10-23T00:26:19.743Z,99.99
2022-10-23T00:27:19.715Z,99.99
2022-10-23T00:28:19.758Z,99.99
2022-10-23T00:29:20.780Z,99.99
2022-10-23T00:30:19.717Z,99.99
2022-10-23T00:31:19.738Z,99.99
2022-10-23T00:32:19.712Z,99.99
2022-10-23T00:33:19.788Z,99.99
2022-10-23T00:34:19.676Z,99.99
2022-10-23T00:35:19.627Z,99.99
2022-10-23T00:36:19.658Z,99.99
2022-10-23T00:37:20.497Z,99.99
2022-10-23T00:38:20.269Z,99.99
2022-10-23T00:39:19.641Z,99.99
2022-10-23T00:40:19.599Z,99.99
2022-10-23T00:41:19.590Z,99.99
2022-10-23T00:42:20.541Z,99.99
2022-10-23T00:43:19.612Z,99.99
2022-10-23T00:44:19.602Z,99.99
2022-10-23T00:45:19.568Z,99.99
2022-10-23T00:46:19.591Z,99.99
2022-10-23T00:47:19.513Z,99.99
2022-10-23T00:48:19.466Z,99.99
2022-10-23T00:49:19.440Z,99.99
2022-10-23T00:50:19.472Z,99.99
2022-10-23T00:51:19.465Z,99.99
2022-10-23T00:52:19.410Z,99.99
2022-10-23T00:53:19.432Z,99.99
2022-10-23T00:54:26.595Z,99.99
2022-10-23T00:55:20.415Z,99.99
2022-10-23T00:56:19.420Z,99.99
2022-10-23T00:57:19.609Z,99.99
2022-10-23T00:58:19.355Z,99.99
2022-10-23T00:59:19.324Z,99.99
2022-10-23T01:00:19.292Z,99.99
2022-10-23T01:01:19.413Z,99.99
2022-10-23T01:02:20.318Z,99.99
2022-10-23T01:03:19.292Z,99.99
2022-10-23T01:04:19.291Z,99.99
2022-10-23T01:05:19.264Z,99.99
2022-10-23T01:06:20.274Z,99.99
2022-10-23T01:07:20.225Z,99.99
2022-10-23T01:08:19.221Z,99.99
2022-10-23T01:09:19.208Z,99.99
2022-10-23T01:10:19.173Z,99.99
2022-10-23T01:11:19.188Z,99.99
2022-10-23T01:12:19.164Z,99.99
2022-10-23T01:13:19.161Z,99.99
2022-10-23T01:14:19.154Z,99.99
2022-10-23T01:15:19.176Z,99.99
2022-10-23T01:16:19.758Z,99.99
2022-10-23T01:17:19.127Z,99.99
2022-10-23T01:18:19.065Z,99.99
2022-10-23T01:19:19.065Z,99.99
2022-10-23T01:20:19.058Z,99.99
2022-10-23T01:21:19.074Z,99.99
2022-10-23T01:22:19.072Z,99.99
2022-10-23T01:23:19.021Z,99.99
2022-10-23T01:24:19.010Z,99.99
2022-10-23T01:25:18.977Z,99.99
2022-10-23T01:26:18.992Z,99.99
2022-10-23T01:27:18.969Z,99.99
2022-10-23T01:28:18.951Z,99.99
2022-10-23T01:29:18.991Z,99.99
2022-10-23T01:30:19.490Z,99.99
2022-10-23T01:31:18.932Z,99.99
2022-10-23T01:32:18.926Z,99.99
2022-10-23T01:33:18.911Z,99.99
2022-10-23T01:34:18.872Z,99.99
2022-10-23T01:35:18.891Z,99.99
2022-10-23T01:36:18.870Z,99.99
2022-10-23T01:37:18.841Z,99.99
2022-10-23T01:38:18.830Z,99.99
2022-10-23T01:39:18.829Z,99.99
2022-10-23T01:40:18.791Z,99.99
2022-10-23T01:41:18.910Z,99.99
2022-10-23T01:42:18.788Z,99.99
2022-10-23T01:43:18.852Z,99.99
2022-10-23T01:44:18.743Z,99.99
2022-10-23T01:45:18.731Z,99.99
2022-10-23T01:46:18.781Z,99.99
2022-10-23T01:47:18.804Z,99.99
2022-10-23T01:48:18.723Z,99.99
2022-10-23T01:49:18.775Z,99.99
2022-10-23T01:50:19.458Z,99.99
2022-10-23T01:51:18.675Z,99.99
2022-10-23T01:52:18.677Z,99.99
2022-10-23T01:53:18.643Z,99.99
2022-10-23T01:54:19.757Z,99.99
2022-10-23T01:55:18.635Z,99.99
2022-10-23T01:56:18.598Z,99.99
2022-10-23T01:57:18.605Z,99.99
2022-10-23T01:58:18.574Z,99.99
2022-10-23T01:59:18.619Z,99.99
2022-10-23T02:00:18.555Z,99.99
2022-10-23T02:01:19.672Z,99.99
2022-10-23T02:02:18.806Z,99.99
2022-10-23T02:03:18.491Z,99.99
2022-10-23T02:04:18.516Z,99.99
2022-10-23T02:05:18.549Z,99.99
2022-10-23T02:06:18.511Z,99.99
2022-10-23T02:07:18.468Z,99.99
2022-10-23T02:08:18.472Z,99.99
2022-10-23T02:09:18.416Z,99.99
2022-10-23T02:10:18.452Z,99.99
2022-10-23T02:11:19.660Z,99.99
2022-10-23T02:12:18.490Z,99.99
2022-10-23T02:13:18.396Z,99.99
2022-10-23T02:14:18.350Z,99.99
2022-10-23T02:15:18.396Z,99.99
2022-10-23T02:16:18.331Z,99.99
2022-10-23T02:17:18.356Z,99.99
2022-10-23T02:18:18.338Z,99.99
2022-10-23T02:19:19.314Z,99.99
2022-10-23T02:20:18.328Z,99.99
2022-10-23T02:21:18.400Z,99.99
2022-10-23T02:22:18.270Z,99.99
2022-10-23T02:23:18.262Z,99.99
2022-10-23T02:24:19.440Z,99.99
2022-10-23T02:25:18.242Z,99.99
2022-10-23T02:26:18.359Z,99.99
2022-10-23T02:27:18.211Z,99.99
2022-10-23T02:28:18.211Z,99.99
2022-10-23T02:29:18.172Z,99.99
2022-10-23T02:30:18.169Z,99.99
2022-10-23T02:31:18.191Z,99.99
2022-10-23T02:32:18.424Z,99.99
2022-10-23T02:33:18.129Z,99.99
2022-10-23T02:34:18.309Z,99.99
2022-10-23T02:35:18.104Z,99.99
2022-10-23T02:36:18.120Z,99.99
2022-10-23T02:37:18.198Z,99.99
2022-10-23T02:38:18.042Z,99.99
2022-10-23T02:39:18.062Z,99.99
2022-10-23T02:40:18.011Z,99.99
2022-10-23T02:41:18.044Z,99.99
2022-10-23T02:42:18.123Z,99.99
2022-10-23T02:43:18.033Z,99.99
2022-10-23T02:44:18.163Z,99.99
2022-10-23T02:45:19.121Z,99.99
2022-10-23T02:46:17.945Z,99.99
2022-10-23T02:47:17.947Z,99.99
2022-10-23T02:48:17.955Z,99.99
2022-10-23T02:49:17.955Z,99.99
2022-10-23T02:50:17.918Z,99.99
2022-10-23T02:51:17.927Z,99.99
2022-10-23T02:52:17.898Z,99.99
2022-10-23T02:53:17.887Z,99.99
2022-10-23T02:54:17.838Z,99.99
2022-10-23T02:55:17.835Z,99.99
2022-10-23T02:56:17.850Z,99.99
2022-10-23T02:57:18.746Z,99.99
2022-10-23T02:58:17.799Z,99.99
2022-10-23T02:59:17.817Z,99.99
2022-10-23T03:00:17.807Z,99.99
2022-10-23T03:01:17.923Z,99.99
2022-10-23T03:02:17.906Z,99.99
2022-10-23T03:03:17.767Z,99.99
2022-10-23T03:04:17.726Z,99.99
2022-10-23T03:05:17.709Z,99.99
2022-10-23T03:06:17.727Z,99.99
2022-10-23T03:07:17.708Z,99.99
2022-10-23T03:08:17.710Z,99.99
2022-10-23T03:09:17.681Z,99.99
2022-10-23T03:10:17.651Z,99.99
2022-10-23T03:11:18.094Z,99.99
2022-10-23T03:12:17.859Z,99.99
2022-10-23T03:13:17.661Z,99.99
2022-10-23T03:14:17.603Z,99.99
2022-10-23T03:15:17.602Z,99.99
2022-10-23T03:16:17.572Z,99.99
2022-10-23T03:17:17.542Z,99.99
2022-10-23T03:18:17.599Z,99.99
2022-10-23T03:19:17.550Z,99.99
2022-10-23T03:20:17.545Z,99.99
2022-10-23T03:21:17.492Z,99.99
2022-10-23T03:22:17.551Z,99.99
2022-10-23T03:23:17.580Z,99.99
2022-10-23T03:24:17.472Z,99.99
2022-10-23T03:25:17.635Z,99.99
2022-10-23T03:26:17.454Z,99.99
2022-10-23T03:27:18.626Z,99.99
2022-10-23T03:28:17.543Z,99.99
2022-10-23T03:29:17.452Z,99.99
2022-10-23T03:30:17.432Z,99.99
2022-10-23T03:31:17.423Z,99.99
2022-10-23T03:32:17.352Z,99.99
2022-10-23T03:33:17.387Z,99.99
2022-10-23T03:34:17.345Z,99.99
2022-10-23T03:35:18.106Z,99.99
2022-10-23T03:36:17.405Z,99.99
2022-10-23T03:37:17.596Z,99.99
2022-10-23T03:38:17.332Z,99.99
2022-10-23T03:39:17.304Z,99.99
2022-10-23T03:40:17.378Z,99.99
2022-10-23T03:41:17.255Z,99.99
2022-10-23T03:42:17.255Z,99.99
2022-10-23T03:43:17.220Z,99.99
2022-10-23T03:44:17.478Z,99.99
2022-10-23T03:45:17.291Z,99.99
2022-10-23T03:46:17.167Z,99.99
2022-10-23T03:47:17.201Z,99.99
2022-10-23T03:48:17.146Z,99.99
2022-10-23T03:49:17.335Z,99.99
2022-10-23T03:50:18.351Z,99.99
2022-10-23T03:51:17.097Z,99.99
2022-10-23T03:52:17.153Z,99.99
2022-10-23T03:53:17.121Z,99.99
2022-10-23T03:54:17.066Z,99.99
2022-10-23T03:55:17.149Z,99.99
2022-10-23T03:56:17.063Z,99.99
2022-10-23T03:57:17.039Z,99.99
2022-10-23T03:58:17.075Z,99.99
2022-10-23T03:59:17.065Z,99.99
2022-10-23T04:00:17.050Z,99.99
2022-10-23T04:01:17.080Z,99.99
2022-10-23T04:02:17.065Z,99.99
2022-10-23T04:03:16.982Z,99.99
2022-10-23T04:04:17.061Z,99.99
2022-10-23T04:05:16.970Z,99.99
2022-10-23T04:06:17.381Z,99.99
2022-10-23T04:07:16.989Z,99.99
2022-10-23T04:08:19.989Z,99.99
2022-10-23T04:09:16.883Z,99.99
2022-10-23T04:10:16.881Z,99.99
2022-10-23T04:11:16.983Z,99.99
2022-10-23T04:12:16.866Z,99.99
2022-10-23T04:13:17.683Z,99.99
2022-10-23T04:14:18.091Z,99.99
2022-10-23T04:15:18.005Z,99.99
2022-10-23T04:16:16.891Z,99.99
2022-10-23T04:17:16.870Z,99.99
2022-10-23T04:18:16.762Z,99.99
2022-10-23T04:19:16.795Z,99.99
2022-10-23T04:20:16.791Z,99.99
2022-10-23T04:21:16.753Z,99.99
2022-10-23T04:22:16.743Z,99.99
2022-10-23T04:23:17.293Z,99.99
2022-10-23T04:24:16.705Z,99.99
2022-10-23T04:25:16.704Z,99.99
2022-10-23T04:26:16.690Z,99.99
2022-10-23T04:27:16.776Z,99.99
2022-10-23T04:28:17.775Z,99.99
2022-10-23T04:29:16.632Z,99.99
2022-10-23T04:30:16.607Z,99.99
2022-10-23T04:31:16.803Z,99.99
2022-10-23T04:32:16.603Z,99.99
2022-10-23T04:33:16.604Z,99.99
2022-10-23T04:34:16.609Z,99.99
2022-10-23T04:35:16.555Z,99.99
2022-10-23T04:36:16.539Z,99.99
2022-10-23T04:37:16.595Z,99.99
2022-10-23T04:38:16.527Z,99.99
2022-10-23T04:39:16.622Z,99.99
2022-10-23T04:40:16.487Z,99.99
2022-10-23T04:41:16.464Z,99.99
2022-10-23T04:42:16.600Z,99.99
2022-10-23T04:43:16.499Z,99.99
2022-10-23T04:44:17.267Z,99.99
2022-10-23T04:45:16.531Z,99.99
2022-10-23T04:46:16.399Z,99.99
2022-10-23T04:47:16.425Z,99.99
2022-10-23T04:48:16.412Z,99.99
2022-10-23T04:49:16.480Z,99.99
2022-10-23T04:50:16.583Z,99.99
2022-10-23T04:51:16.327Z,99.99
2022-10-23T04:52:16.323Z,99.99
2022-10-23T04:53:17.329Z,99.99
2022-10-23T04:54:16.330Z,99.99
2022-10-23T04:55:16.300Z,99.99
2022-10-23T04:56:16.289Z,99.99
2022-10-23T04:57:16.311Z,99.99
2022-10-23T04:58:16.348Z,99.99
2022-10-23T04:59:16.257Z,99.99
2022-10-23T05:00:16.233Z,99.99
2022-10-23T05:01:17.291Z,99.99
2022-10-23T05:02:16.223Z,99.99
2022-10-23T05:03:16.193Z,99.99
2022-10-23T05:04:16.288Z,99.99
2022-10-23T05:05:17.292Z,99.99
2022-10-23T05:06:16.307Z,99.99
2022-10-23T05:07:16.265Z,99.99
2022-10-23T05:08:18.088Z,99.99
2022-10-23T05:09:16.914Z,99.99
2022-10-23T05:10:16.214Z,99.99
2022-10-23T05:11:16.151Z,99.99
2022-10-23T05:12:16.075Z,99.99
2022-10-23T05:13:16.192Z,99.99
2022-10-23T05:14:20.534Z,99.99
2022-10-23T05:15:17.086Z,99.99
2022-10-23T05:16:16.048Z,99.99
2022-10-23T05:17:16.223Z,99.99
2022-10-23T05:18:16.013Z,99.99
2022-10-23T05:19:16.731Z,99.99
2022-10-23T05:20:16.875Z,99.99
2022-10-23T05:21:16.034Z,99.99
2022-10-23T05:22:17.215Z,99.99
2022-10-23T05:23:15.974Z,99.99
2022-10-23T05:24:16.033Z,99.99
2022-10-23T05:25:15.906Z,99.99
2022-10-23T05:26:15.917Z,99.99
2022-10-23T05:27:15.874Z,99.99
2022-10-23T05:28:15.889Z,99.99
2022-10-23T05:29:16.867Z,99.99
2022-10-23T05:30:16.947Z,99.99
2022-10-23T05:31:15.847Z,99.99
2022-10-23T05:32:16.812Z,99.99
2022-10-23T05:33:16.187Z,99.99
2022-10-23T05:34:16.049Z,99.99
2022-10-23T05:35:15.872Z,99.99
2022-10-23T05:36:15.836Z,99.99
2022-10-23T05:37:15.779Z,99.99
2022-10-23T05:38:15.735Z,99.99
2022-10-23T05:39:15.777Z,99.99
2022-10-23T05:40:15.737Z,99.99
2022-10-23T05:41:15.746Z,99.99
2022-10-23T05:42:16.825Z,99.99
2022-10-23T05:43:16.719Z,99.99
2022-10-23T05:44:15.918Z,99.99
2022-10-23T05:45:16.562Z,99.99
2022-10-23T05:46:15.637Z,99.99
2022-10-23T05:47:15.618Z,99.99
2022-10-23T05:48:22.882Z,99.99
2022-10-23T05:49:16.607Z,99.99
2022-10-23T05:50:15.640Z,99.99
2022-10-23T05:51:15.588Z,99.99
2022-10-23T05:52:15.548Z,99.99
2022-10-23T05:53:15.553Z,99.99
2022-10-23T05:54:15.538Z,99.99
2022-10-23T05:55:16.592Z,99.99
2022-10-23T05:56:15.533Z,99.99
2022-10-23T05:57:15.498Z,99.99
2022-10-23T05:58:15.512Z,99.99
2022-10-23T05:59:19.046Z,99.99
2022-10-23T06:00:16.547Z,99.99
2022-10-23T06:01:15.590Z,99.99
2022-10-23T06:02:15.706Z,99.99
2022-10-23T06:03:15.438Z,99.99
2022-10-23T06:04:15.623Z,99.99
2022-10-23T06:05:15.382Z,99.99
2022-10-23T06:06:15.393Z,99.99
2022-10-23T06:07:15.388Z,99.99
2022-10-23T06:08:15.505Z,99.99
2022-10-23T06:09:15.332Z,99.99
2022-10-23T06:10:15.313Z,99.99
2022-10-23T06:11:15.326Z,99.99
2022-10-23T06:12:15.305Z,99.99
2022-10-23T06:13:15.294Z,99.99
2022-10-23T06:14:15.304Z,99.99
2022-10-23T06:15:15.327Z,99.99
2022-10-23T06:16:15.306Z,99.99
2022-10-23T06:17:15.255Z,99.99
2022-10-23T06:18:15.228Z,99.99
2022-10-23T06:19:15.242Z,99.99
2022-10-23T06:20:15.196Z,99.99
2022-10-23T06:21:16.152Z,99.99
2022-10-23T06:22:15.255Z,99.99
2022-10-23T06:23:15.175Z,99.99
2022-10-23T06:24:15.160Z,99.99
2022-10-23T06:25:15.163Z,99.99
2022-10-23T06:26:16.177Z,99.99
2022-10-23T06:27:15.175Z,99.99
2022-10-23T06:28:17.058Z,99.99
2022-10-23T06:29:15.371Z,99.99
2022-10-23T06:30:15.357Z,99.99
2022-10-23T06:31:15.072Z,99.99
2022-10-23T06:32:15.078Z,99.99
2022-10-23T06:33:15.120Z,99.99
2022-10-23T06:34:15.063Z,99.99
2022-10-23T06:35:15.038Z,99.99
2022-10-23T06:36:15.027Z,99.99
2022-10-23T06:37:15.071Z,99.99
2022-10-23T06:38:14.970Z,99.99
2022-10-23T06:39:14.963Z,99.99
2022-10-23T06:40:14.960Z,99.99
2022-10-23T06:41:14.918Z,99.99
2022-10-23T06:42:14.997Z,99.99
2022-10-23T06:43:14.891Z,99.99
2022-10-23T06:44:14.878Z,99.99
2022-10-23T06:45:14.898Z,99.99
2022-10-23T06:46:14.894Z,99.99
2022-10-23T06:47:14.884Z,99.99
2022-10-23T06:48:14.900Z,99.99
2022-10-23T06:49:14.864Z,99.99
2022-10-23T06:50:15.642Z,99.99
2022-10-23T06:51:14.791Z,99.99
2022-10-23T06:52:41.737Z,99.99
2022-10-23T06:53:15.771Z,99.99
2022-10-23T06:54:14.796Z,99.99
2022-10-23T06:55:14.762Z,99.99
2022-10-23T06:56:14.794Z,99.99
2022-10-23T06:57:14.731Z,99.99
2022-10-23T06:58:14.814Z,99.99
2022-10-23T06:59:14.732Z,99.99
2022-10-23T07:00:14.705Z,99.99
2022-10-23T07:01:14.940Z,99.99
2022-10-23T07:02:14.670Z,99.99
2022-10-23T07:03:14.708Z,99.99
2022-10-23T07:04:14.663Z,99.99
2022-10-23T07:05:14.727Z,99.99
2022-10-23T07:06:14.640Z,99.99
2022-10-23T07:07:14.634Z,99.99
2022-10-23T07:08:14.573Z,99.99
2022-10-23T07:09:14.583Z,99.99
2022-10-23T07:10:14.586Z,99.99
2022-10-23T07:11:14.542Z,99.99
2022-10-23T07:12:14.674Z,99.99
2022-10-23T07:13:14.518Z,99.99
2022-10-23T07:14:15.136Z,99.99
2022-10-23T07:15:14.487Z,99.99
2022-10-23T07:16:14.473Z,99.99
2022-10-23T07:17:14.517Z,99.99
2022-10-23T07:18:14.531Z,99.99
2022-10-23T07:19:14.491Z,99.99
2022-10-23T07:20:14.460Z,99.99
2022-10-23T07:21:14.467Z,99.99
2022-10-23T07:22:15.944Z,99.99
2022-10-23T07:23:14.406Z,99.99
2022-10-23T07:24:14.387Z,99.99
2022-10-23T07:25:14.367Z,99.99
2022-10-23T07:26:14.544Z,99.99
2022-10-23T07:27:14.355Z,99.99
2022-10-23T07:28:14.347Z,99.99
2022-10-23T07:29:14.355Z,99.99
2022-10-23T07:30:14.333Z,99.99
2022-10-23T07:31:14.311Z,99.99
2022-10-23T07:32:14.277Z,99.99
2022-10-23T07:33:14.323Z,99.99
2022-10-23T07:34:14.328Z,99.99
2022-10-23T07:36:14.241Z,99.99
2022-10-23T07:37:15.007Z,99.99
2022-10-23T07:38:14.191Z,99.99
2022-10-23T07:39:14.164Z,99.99
2022-10-23T07:40:14.229Z,99.99
2022-10-23T07:41:14.164Z,99.99
2022-10-23T07:42:14.159Z,99.99
2022-10-23T07:43:14.143Z,99.99
2022-10-23T07:44:14.113Z,99.99
2022-10-23T07:45:14.152Z,99.99
2022-10-23T07:46:14.080Z,99.99
2022-10-23T07:47:14.072Z,99.99
2022-10-23T07:48:14.083Z,99.99
2022-10-23T07:49:14.107Z,99.99
2022-10-23T07:50:14.146Z,99.99
2022-10-23T07:51:14.035Z,99.99
2022-10-23T07:52:14.032Z,99.99
2022-10-23T07:53:14.018Z,99.99
2022-10-23T07:54:14.234Z,99.99
2022-10-23T07:55:14.403Z,99.99
2022-10-23T07:56:14.044Z,99.99
2022-10-23T07:57:13.941Z,99.99
2022-10-23T07:58:13.964Z,99.99
2022-10-23T07:59:14.067Z,99.99
2022-10-23T08:00:13.977Z,99.99
2022-10-23T08:01:13.958Z,99.99
2022-10-23T08:02:15.393Z,99.99
2022-10-23T08:03:13.883Z,99.99
2022-10-23T08:04:13.883Z,99.99
2022-10-23T08:05:13.912Z,99.99
2022-10-23T08:06:13.848Z,99.99
2022-10-23T08:07:13.827Z,99.99
2022-10-23T08:08:13.822Z,99.99
2022-10-23T08:09:13.797Z,99.99
2022-10-23T08:10:13.832Z,99.99
2022-10-23T08:11:13.800Z,99.99
2022-10-23T08:12:13.760Z,99.99
2022-10-23T08:13:13.733Z,99.99
2022-10-23T08:14:13.726Z,99.99
2022-10-23T08:15:13.792Z,99.99
2022-10-23T08:16:13.723Z,99.99
2022-10-23T08:17:13.728Z,99.99
2022-10-23T08:18:13.752Z,99.99
2022-10-23T08:19:13.700Z,99.99
2022-10-23T08:20:14.478Z,99.99
2022-10-23T08:21:13.666Z,99.99
2022-10-23T08:22:13.691Z,99.99
2022-10-23T08:23:13.599Z,99.99
2022-10-23T08:24:13.619Z,99.99
2022-10-23T08:25:13.653Z,99.99
2022-10-23T08:26:13.636Z,99.99
2022-10-23T08:27:13.569Z,99.99
2022-10-23T08:28:13.573Z,99.99
2022-10-23T08:29:13.552Z,99.99
2022-10-23T08:30:13.525Z,99.99
2022-10-23T08:31:13.559Z,99.99
2022-10-23T08:32:13.491Z,99.99
2022-10-23T08:33:13.486Z,99.99
2022-10-23T08:34:13.471Z,99.99
2022-10-23T08:35:13.581Z,99.99
2022-10-23T08:36:13.443Z,99.62
2022-10-23T08:37:13.412Z,99.52
2022-10-23T08:38:13.434Z,99.52
2022-10-23T08:39:13.440Z,99.31
2022-10-23T08:40:13.435Z,99.47
2022-10-23T08:41:13.406Z,99.47
2022-10-23T08:42:13.366Z,99.67
2022-10-23T08:43:13.350Z,99.42
2022-10-23T08:44:13.390Z,99.63
2022-10-23T08:45:13.340Z,99.52
2022-10-23T08:46:13.306Z,99.22
2022-10-23T08:47:13.357Z,99.07
2022-10-23T08:48:13.296Z,98.97
2022-10-23T08:49:13.288Z,99.07
2022-10-23T08:50:13.312Z,99.38
2022-10-23T08:51:13.322Z,99.22
2022-10-23T08:52:14.154Z,99.33
2022-10-23T08:53:14.224Z,98.82
2022-10-23T08:54:13.309Z,98.36
2022-10-23T08:55:13.185Z,98.52
2022-10-23T08:56:13.218Z,97.60
2022-10-23T08:57:13.304Z,97.80
2022-10-23T08:58:13.160Z,97.80
2022-10-23T08:59:13.226Z,98.11
2022-10-23T09:00:13.144Z,98.32
2022-10-23T09:01:13.223Z,98.47
2022-10-23T09:02:13.208Z,98.07
2022-10-23T09:03:13.100Z,97.96
2022-10-23T09:04:13.110Z,98.07
2022-10-23T09:05:13.111Z,97.81
2022-10-23T09:06:14.009Z,97.92
2022-10-23T09:07:13.240Z,97.31
2022-10-23T09:08:13.927Z,97.11
2022-10-23T09:09:13.012Z,97.20
2022-10-23T09:10:13.014Z,97.61
2022-10-23T09:11:14.163Z,97.51
2022-10-23T09:12:13.011Z,97.47
2022-10-23T09:13:12.961Z,96.09
2022-10-23T09:14:12.948Z,96.19
2022-10-23T09:15:12.942Z,95.79
2022-10-23T09:16:12.924Z,95.99
2022-10-23T09:17:15.961Z,96.60
2022-10-23T09:18:12.907Z,96.75
2022-10-23T09:19:13.070Z,96.66
2022-10-23T09:20:12.937Z,96.66
2022-10-23T09:21:13.025Z,96.45
2022-10-23T09:22:12.856Z,96.75
2022-10-23T09:23:12.877Z,95.54
2022-10-23T09:24:12.845Z,95.84
2022-10-23T09:25:12.824Z,95.74
2022-10-23T09:26:12.786Z,95.74
2022-10-23T09:27:12.830Z,95.74
2022-10-23T09:28:12.803Z,95.34
2022-10-23T09:29:12.740Z,95.43
2022-10-23T09:30:12.795Z,94.02
2022-10-23T09:31:13.774Z,95.54
2022-10-23T09:32:12.736Z,95.74
2022-10-23T09:33:12.777Z,95.54
2022-10-23T09:34:12.959Z,95.59
2022-10-23T09:35:12.680Z,95.79
2022-10-23T09:36:12.659Z,95.29
2022-10-23T09:37:12.701Z,94.78
2022-10-23T09:38:12.620Z,94.98
2022-10-23T09:39:12.692Z,95.59
2022-10-23T09:40:12.603Z,94.84
2022-10-23T09:41:12.592Z,95.25
2022-10-23T09:42:12.603Z,95.55
2022-10-23T09:43:12.614Z,94.94
2022-10-23T09:44:12.680Z,94.13
2022-10-23T09:45:12.592Z,94.34
2022-10-23T09:46:12.590Z,94.13
2022-10-23T09:47:12.531Z,94.09
2022-10-23T09:48:12.490Z,94.70
2022-10-23T09:49:12.679Z,94.70
2022-10-23T09:50:12.523Z,94.19
2022-10-23T09:51:12.453Z,94.24
2022-10-23T09:52:12.467Z,93.07
2022-10-23T09:53:12.464Z,93.27
2022-10-23T09:54:12.533Z,93.99
2022-10-23T09:55:12.424Z,93.99
2022-10-23T09:56:12.458Z,93.38
2022-10-23T09:57:12.406Z,93.38
2022-10-23T09:58:12.364Z,93.74
2022-10-23T09:59:12.769Z,93.13
2022-10-23T10:00:12.507Z,93.43
2022-10-23T10:01:12.422Z,92.72
2022-10-23T10:02:12.652Z,92.12
2022-10-23T10:03:12.314Z,93.33
2022-10-23T10:04:12.325Z,94.40
2022-10-23T10:05:12.307Z,93.08
2022-10-23T10:06:12.277Z,92.08
2022-10-23T10:07:12.260Z,93.39
2022-10-23T10:08:12.281Z,92.94
2022-10-23T10:09:12.589Z,92.74
2022-10-23T10:10:12.291Z,91.93
2022-10-23T10:11:12.223Z,91.42
2022-10-23T10:12:12.200Z,91.93
2022-10-23T10:13:14.830Z,92.24
2022-10-23T10:14:12.198Z,91.53
2022-10-23T10:15:12.199Z,91.28
2022-10-23T10:16:12.126Z,91.58
2022-10-23T10:17:12.169Z,91.89
2022-10-23T10:18:12.130Z,90.58
2022-10-23T10:19:12.180Z,92.14
2022-10-23T10:20:12.124Z,91.74
2022-10-23T10:21:12.078Z,91.44
2022-10-23T10:22:12.160Z,91.60
2022-10-23T10:23:12.176Z,91.19
2022-10-23T10:24:12.222Z,91.50
2022-10-23T10:25:12.098Z,90.69
2022-10-23T10:26:12.083Z,90.39
2022-10-23T10:27:12.022Z,90.28
2022-10-23T10:28:12.026Z,90.65
2022-10-23T10:29:12.129Z,90.95
2022-10-23T10:30:11.964Z,90.34
2022-10-23T10:31:11.954Z,90.55
2022-10-23T10:32:11.955Z,90.65
2022-10-23T10:33:11.956Z,88.93
2022-10-23T10:34:11.945Z,89.50
2022-10-23T10:35:12.756Z,89.79
2022-10-23T10:36:11.895Z,89.79
2022-10-23T10:37:12.055Z,89.39
2022-10-23T10:38:12.825Z,89.29
2022-10-23T10:39:12.240Z,89.50
2022-10-23T10:40:11.914Z,89.09
2022-10-23T10:41:11.887Z,89.79
2022-10-23T10:42:11.815Z,88.39
2022-10-23T10:43:12.522Z,89.59
2022-10-23T10:44:12.229Z,89.29
2022-10-23T10:45:11.787Z,88.39
2022-10-23T10:46:11.801Z,88.68
2022-10-23T10:47:12.137Z,89.19
2022-10-23T10:48:12.587Z,88.89
2022-10-23T10:49:11.725Z,89.19
2022-10-23T10:50:11.751Z,89.25
2022-10-23T10:51:11.669Z,89.05
2022-10-23T10:52:11.684Z,88.54
2022-10-23T10:53:11.702Z,88.75
2022-10-23T10:54:11.639Z,88.45
2022-10-23T10:55:11.666Z,88.85
2022-10-23T10:56:11.625Z,88.24
2022-10-23T10:57:11.614Z,88.24
2022-10-23T10:58:11.657Z,89.05
2022-10-23T10:59:11.678Z,88.34
2022-10-23T11:00:12.543Z,89.25
2022-10-23T11:01:11.695Z,88.75
2022-10-23T11:02:11.684Z,88.34
2022-10-23T11:03:11.563Z,88.14
2022-10-23T11:04:11.526Z,88.75
2022-10-23T11:05:11.675Z,89.25
2022-10-23T11:06:11.618Z,88.34
2022-10-23T11:07:11.667Z,87.34
2022-10-23T11:08:11.635Z,88.30
2022-10-23T11:09:20.381Z,88.60
2022-10-23T11:10:12.427Z,87.60
2022-10-23T11:11:11.528Z,87.90
2022-10-23T11:12:11.448Z,86.99
2022-10-23T11:13:11.410Z,87.09
2022-10-23T11:14:11.413Z,87.29
2022-10-23T11:15:12.024Z,87.70
2022-10-23T11:16:11.356Z,86.29
2022-10-23T11:17:11.507Z,86.58
2022-10-23T11:18:11.687Z,86.18
2022-10-23T11:19:13.899Z,86.08
2022-10-23T11:20:11.291Z,86.75
2022-10-23T11:21:12.428Z,86.15
2022-10-23T11:22:11.390Z,87.25
2022-10-23T11:23:11.317Z,86.44
2022-10-23T11:24:11.264Z,86.04
2022-10-23T11:25:11.220Z,86.95
2022-10-23T11:26:11.283Z,86.85
2022-10-23T11:27:11.226Z,85.64
2022-10-23T11:28:11.212Z,85.44
2022-10-23T11:29:11.253Z,85.64
2022-10-23T11:30:11.490Z,84.53
2022-10-23T11:31:12.318Z,84.23
2022-10-23T11:32:11.211Z,85.24
2022-10-23T11:33:11.195Z,86.15
2022-10-23T11:34:11.175Z,87.15
2022-10-23T11:35:11.161Z,85.24
2022-10-23T11:36:11.096Z,84.94
2022-10-23T11:37:11.154Z,85.24
2022-10-23T11:38:11.103Z,85.30
2022-10-23T11:39:11.107Z,86.81
2022-10-23T11:40:11.073Z,84.59
2022-10-23T11:41:11.055Z,85.40
2022-10-23T11:42:11.047Z,84.19
2022-10-23T11:43:11.092Z,85.00
2022-10-23T11:44:11.985Z,85.66
2022-10-23T11:45:11.580Z,84.55
2022-10-23T11:46:10.948Z,84.35
2022-10-23T11:47:10.959Z,83.39
2022-10-23T11:48:11.067Z,83.59
2022-10-23T11:50:10.913Z,84.55
2022-10-23T11:51:10.927Z,83.25
2022-10-23T11:52:10.890Z,84.05
2022-10-23T11:53:15.060Z,83.54
2022-10-23T11:54:11.921Z,84.05
2022-10-23T11:55:10.872Z,83.25
2022-10-23T11:56:10.881Z,82.64
2022-10-23T11:57:10.967Z,82.64
2022-10-23T11:58:10.820Z,83.65
2022-10-23T11:59:10.882Z,83.00
2022-10-23T12:00:10.911Z,84.21
2022-10-23T12:01:10.919Z,83.51
2022-10-23T12:02:10.891Z,83.00
2022-10-23T12:03:10.783Z,82.70
2022-10-23T12:04:11.451Z,82.20
2022-10-23T12:05:10.815Z,82.90
2022-10-23T12:06:10.747Z,82.30
2022-10-23T12:07:10.781Z,82.97
2022-10-23T12:08:10.684Z,82.06
2022-10-23T12:09:11.421Z,82.36
2022-10-23T12:10:10.780Z,81.65
2022-10-23T12:11:10.640Z,81.65
2022-10-23T12:12:10.766Z,81.56
2022-10-23T12:13:10.610Z,82.86
2022-10-23T12:14:10.781Z,83.17
2022-10-23T12:15:10.637Z,83.37
2022-10-23T12:16:10.575Z,82.36
2022-10-23T12:17:10.587Z,82.97
2022-10-23T12:18:10.548Z,83.37
2022-10-23T12:19:11.674Z,82.86
2022-10-23T12:20:10.774Z,82.66
2022-10-23T12:21:11.789Z,82.66
2022-10-23T12:22:10.501Z,81.35
2022-10-23T12:23:10.519Z,82.26
2022-10-23T12:24:10.708Z,83.17
2022-10-23T12:25:10.548Z,82.97
2022-10-23T12:26:10.479Z,81.76
2022-10-23T12:27:10.470Z,82.10
2022-10-23T12:28:10.415Z,81.39
2022-10-23T12:29:10.590Z,82.30
2022-10-23T12:30:10.530Z,83.20
2022-10-23T12:31:10.459Z,81.79
2022-10-23T12:32:10.406Z,82.30
2022-10-23T12:33:10.367Z,83.37
2022-10-23T12:34:11.553Z,82.10
2022-10-23T12:35:11.474Z,83.11
2022-10-23T12:36:10.963Z,82.20
2022-10-23T12:37:10.375Z,82.70
2022-10-23T12:38:10.318Z,83.40
2022-10-23T12:39:10.356Z,82.90
2022-10-23T12:40:10.343Z,83.71
2022-10-23T12:41:10.282Z,83.20
2022-10-23T12:42:10.245Z,82.90
2022-10-23T12:43:10.234Z,82.97
2022-10-23T12:44:11.120Z,82.76
2022-10-23T12:45:10.390Z,83.37
2022-10-23T12:46:14.143Z,82.86
2022-10-23T12:47:11.309Z,82.86
2022-10-23T12:48:10.200Z,82.56
2022-10-23T12:49:11.105Z,81.85
2022-10-23T12:50:10.147Z,82.02
2022-10-23T12:51:10.158Z,82.22
2022-10-23T12:52:10.121Z,81.65
2022-10-23T12:53:10.119Z,82.36
2022-10-23T12:54:10.093Z,81.56